ARG1638 SABE-SAWC
Flight info
| Callsign | ARG1638 |
|---|---|
| Flight time | 2h 59m |
| Altitude | 38000 |
| Route | PTA8 GBE UT694 IREMO UP664 CRV UW48 BOKUK BOKUK2Q |
| Aircraft | B38M/M-SDE1FGHILORVWXY/HB1 |
Departure
| Time | 2026-04-25 19:30 |
|---|---|
| Airport | Aeroparque Jorge Newbery (SABE) |
Arrival
| Time | 2026-04-25 22:30 |
|---|---|
| Airport | El Calafate - Commander Armando Tola International Airport (SAWC) |
| Time | Latitude | Longitude | Altitude | Speed | Heading |
|---|---|---|---|---|---|
| 2026-04-25 18:48 | -34.55720 | -58.41404 | 31 ft | 0 kts | 29° |
| 2026-04-25 19:12 | -34.55727 | -58.41408 | 31 ft | 2 kts | 28° |
| 2026-04-25 19:13 | -34.55739 | -58.41416 | 31 ft | 2 kts | 23° |
| 2026-04-25 19:13 | -34.55751 | -58.41420 | 31 ft | 1 kts | 356° |
| 2026-04-25 19:13 | -34.55760 | -58.41417 | 31 ft | 2 kts | 321° |
| 2026-04-25 19:13 | -34.55767 | -58.41409 | 31 ft | 1 kts | 307° |
| 2026-04-25 19:14 | -34.55771 | -58.41402 | 31 ft | 1 kts | 304° |
| 2026-04-25 19:14 | -34.55772 | -58.41400 | 31 ft | 1 kts | 303° |
| 2026-04-25 19:14 | -34.55777 | -58.41390 | 31 ft | 1 kts | 302° |
| 2026-04-25 19:14 | -34.55779 | -58.41387 | 31 ft | 0 kts | 301° |
| 2026-04-25 19:18 | -34.55771 | -58.41402 | 31 ft | 5 kts | 301° |
| 2026-04-25 19:18 | -34.55741 | -58.41461 | 31 ft | 10 kts | 302° |
| 2026-04-25 19:18 | -34.55728 | -58.41546 | 31 ft | 11 kts | 236° |
| 2026-04-25 19:19 | -34.55792 | -58.41587 | 31 ft | 8 kts | 163° |
| 2026-04-25 19:19 | -34.55822 | -58.41540 | 30 ft | 8 kts | 116° |
| 2026-04-25 19:19 | -34.55850 | -58.41472 | 30 ft | 10 kts | 117° |
| 2026-04-25 19:19 | -34.55861 | -58.41445 | 31 ft | 11 kts | 117° |
| 2026-04-25 19:20 | -34.55919 | -58.41308 | 31 ft | 12 kts | 117° |
| 2026-04-25 19:20 | -34.55967 | -58.41225 | 31 ft | 12 kts | 127° |
| 2026-04-25 19:20 | -34.56023 | -58.41136 | 31 ft | 14 kts | 127° |
| 2026-04-25 19:20 | -34.56073 | -58.41055 | 31 ft | 13 kts | 127° |
| 2026-04-25 19:21 | -34.56127 | -58.40969 | 31 ft | 10 kts | 125° |
| 2026-04-25 19:21 | -34.56208 | -58.40819 | 31 ft | 9 kts | 131° |
| 2026-04-25 19:21 | -34.56241 | -58.40751 | 31 ft | 10 kts | 97° |
| 2026-04-25 19:22 | -34.56260 | -58.40665 | 31 ft | 12 kts | 121° |
| 2026-04-25 19:22 | -34.56299 | -58.40595 | 31 ft | 8 kts | 125° |
| 2026-04-25 19:22 | -34.56377 | -58.40502 | 31 ft | 9 kts | 139° |
| 2026-04-25 19:23 | -34.56414 | -58.40462 | 31 ft | 0 kts | 138° |
| 2026-04-25 19:28 | -34.56417 | -58.40458 | 31 ft | 3 kts | 138° |
| 2026-04-25 19:28 | -34.56445 | -58.40428 | 31 ft | 7 kts | 137° |
| 2026-04-25 19:28 | -34.56490 | -58.40380 | 30 ft | 10 kts | 146° |
| 2026-04-25 19:29 | -34.56554 | -58.40405 | 29 ft | 10 kts | 241° |
| 2026-04-25 19:29 | -34.56541 | -58.40470 | 29 ft | 0 kts | 303° |
| 2026-04-25 19:29 | -34.56540 | -58.40471 | 29 ft | 2 kts | 303° |
| 2026-04-25 19:30 | -34.56411 | -58.40703 | 28 ft | 74 kts | 304° |
| 2026-04-25 19:30 | -34.55970 | -58.41490 | 29 ft | 149 kts | 304° |
| 2026-04-25 19:30 | -34.55338 | -58.42721 | 335 ft | 189 kts | 300° |
| 2026-04-25 19:30 | -34.54584 | -58.44163 | 1133 ft | 212 kts | 308° |
| 2026-04-25 19:31 | -34.53816 | -58.44913 | 1860 ft | 219 kts | 335° |
| 2026-04-25 19:31 | -34.51770 | -58.45060 | 3135 ft | 235 kts | 18° |
| 2026-04-25 19:31 | -34.50797 | -58.44415 | 3616 ft | 247 kts | 40° |
| 2026-04-25 19:31 | -34.49775 | -58.42676 | 4320 ft | 265 kts | 71° |
| 2026-04-25 19:32 | -34.49534 | -58.40412 | 5012 ft | 281 kts | 99° |
| 2026-04-25 19:32 | -34.50192 | -58.38205 | 5987 ft | 277 kts | 123° |
| 2026-04-25 19:32 | -34.50979 | -58.36050 | 7002 ft | 285 kts | 108° |
| 2026-04-25 19:32 | -34.51310 | -58.34485 | 7545 ft | 292 kts | 107° |
| 2026-04-25 19:33 | -34.52029 | -58.31285 | 8800 ft | 298 kts | 107° |
| 2026-04-25 19:33 | -34.52598 | -58.28833 | 9681 ft | 305 kts | 107° |
| 2026-04-25 19:33 | -34.53203 | -58.26345 | 10463 ft | 313 kts | 111° |
| 2026-04-25 19:33 | -34.54339 | -58.24072 | 10946 ft | 326 kts | 136° |
| 2026-04-25 19:34 | -34.56167 | -58.22376 | 11394 ft | 339 kts | 150° |
| 2026-04-25 19:34 | -34.58193 | -58.20790 | 11909 ft | 354 kts | 150° |
| 2026-04-25 19:34 | -34.60284 | -58.19147 | 12611 ft | 360 kts | 150° |
| 2026-04-25 19:34 | -34.62401 | -58.17489 | 13404 ft | 365 kts | 150° |
| 2026-04-25 19:35 | -34.64558 | -58.15799 | 14070 ft | 372 kts | 151° |
| 2026-04-25 19:35 | -34.66744 | -58.14089 | 14755 ft | 376 kts | 151° |
| 2026-04-25 19:35 | -34.68962 | -58.12352 | 15408 ft | 381 kts | 151° |
| 2026-04-25 19:35 | -34.71195 | -58.10601 | 16074 ft | 385 kts | 151° |
| 2026-04-25 19:36 | -34.73466 | -58.08821 | 16729 ft | 389 kts | 151° |
| 2026-04-25 19:36 | -34.75753 | -58.07026 | 17363 ft | 393 kts | 152° |
| 2026-04-25 19:36 | -34.78060 | -58.05214 | 17969 ft | 398 kts | 152° |
| 2026-04-25 19:36 | -34.80400 | -58.03375 | 18525 ft | 402 kts | 152° |
| 2026-04-25 19:37 | -34.82761 | -58.01519 | 19038 ft | 406 kts | 152° |
| 2026-04-25 19:37 | -34.85143 | -57.99645 | 19578 ft | 409 kts | 152° |
| 2026-04-25 19:37 | -34.87546 | -57.97753 | 20081 ft | 414 kts | 153° |
| 2026-04-25 19:37 | -34.89974 | -57.95840 | 20588 ft | 417 kts | 153° |
| 2026-04-25 19:38 | -34.92428 | -57.93926 | 21109 ft | 419 kts | 156° |
| 2026-04-25 19:38 | -34.95080 | -57.92596 | 21573 ft | 408 kts | 174° |
| 2026-04-25 19:38 | -34.97859 | -57.92276 | 21999 ft | 397 kts | 192° |
| 2026-04-25 19:38 | -35.00523 | -57.92911 | 22473 ft | 384 kts | 208° |
| 2026-04-25 19:39 | -35.02952 | -57.94214 | 22937 ft | 382 kts | 214° |
| 2026-04-25 19:39 | -35.05324 | -57.95692 | 23462 ft | 383 kts | 216° |
| 2026-04-25 19:39 | -35.07659 | -57.97255 | 23918 ft | 384 kts | 218° |
| 2026-04-25 19:39 | -35.09988 | -57.98878 | 24370 ft | 386 kts | 219° |
| 2026-04-25 19:40 | -35.12309 | -58.00525 | 24829 ft | 387 kts | 219° |
| 2026-04-25 19:40 | -35.14636 | -58.02197 | 25275 ft | 389 kts | 220° |
| 2026-04-25 19:40 | -35.16974 | -58.03889 | 25722 ft | 391 kts | 220° |
| 2026-04-25 19:40 | -35.19323 | -58.05595 | 26165 ft | 393 kts | 220° |
| 2026-04-25 19:41 | -35.21648 | -58.07286 | 26586 ft | 396 kts | 221° |
| 2026-04-25 19:41 | -35.24053 | -58.09036 | 27016 ft | 398 kts | 221° |
| 2026-04-25 19:41 | -35.26443 | -58.10776 | 27432 ft | 400 kts | 221° |
| 2026-04-25 19:41 | -35.28027 | -58.11931 | 27697 ft | 402 kts | 221° |
| 2026-04-25 19:42 | -35.31225 | -58.14264 | 28233 ft | 405 kts | 221° |
| 2026-04-25 19:42 | -35.33651 | -58.16035 | 28624 ft | 407 kts | 221° |
| 2026-04-25 19:42 | -35.36090 | -58.17816 | 28999 ft | 410 kts | 222° |
| 2026-04-25 19:42 | -35.38546 | -58.19611 | 29374 ft | 412 kts | 221° |
| 2026-04-25 19:43 | -35.41014 | -58.21416 | 29736 ft | 415 kts | 222° |
| 2026-04-25 19:43 | -35.43498 | -58.23235 | 30084 ft | 417 kts | 222° |
| 2026-04-25 19:43 | -35.46000 | -58.25068 | 30394 ft | 419 kts | 222° |
| 2026-04-25 19:43 | -35.48513 | -58.26910 | 30705 ft | 421 kts | 222° |
| 2026-04-25 19:44 | -35.51031 | -58.28757 | 31023 ft | 422 kts | 222° |
| 2026-04-25 19:44 | -35.53567 | -58.30619 | 31321 ft | 424 kts | 222° |
| 2026-04-25 19:44 | -35.56104 | -58.32483 | 31705 ft | 424 kts | 222° |
| 2026-04-25 19:44 | -35.58602 | -58.34320 | 32149 ft | 422 kts | 222° |
| 2026-04-25 19:45 | -35.61109 | -58.36165 | 32598 ft | 420 kts | 223° |
| 2026-04-25 19:45 | -35.63620 | -58.38013 | 33029 ft | 418 kts | 223° |
| 2026-04-25 19:45 | -35.66116 | -58.39853 | 33448 ft | 417 kts | 223° |
| 2026-04-25 19:45 | -35.68602 | -58.41687 | 33858 ft | 416 kts | 223° |
| 2026-04-25 19:46 | -35.71080 | -58.43513 | 34216 ft | 414 kts | 223° |
| 2026-04-25 19:46 | -35.73556 | -58.45341 | 34515 ft | 414 kts | 223° |
| 2026-04-25 19:46 | -35.75998 | -58.47196 | 34789 ft | 413 kts | 224° |
| 2026-04-25 19:46 | -35.78435 | -58.49073 | 35088 ft | 413 kts | 223° |
| 2026-04-25 19:47 | -35.80867 | -58.50941 | 35388 ft | 412 kts | 223° |
| 2026-04-25 19:47 | -35.83296 | -58.52808 | 35679 ft | 412 kts | 223° |
| 2026-04-25 19:47 | -35.85725 | -58.54674 | 35948 ft | 411 kts | 223° |
| 2026-04-25 19:47 | -35.88152 | -58.56542 | 36228 ft | 411 kts | 223° |
| 2026-04-25 19:48 | -35.90545 | -58.58383 | 36496 ft | 410 kts | 223° |
| 2026-04-25 19:48 | -35.92996 | -58.60271 | 36760 ft | 410 kts | 223° |
| 2026-04-25 19:48 | -35.95383 | -58.62111 | 37012 ft | 410 kts | 223° |
| 2026-04-25 19:48 | -35.97832 | -58.64000 | 37261 ft | 409 kts | 222° |
| 2026-04-25 19:49 | -36.00211 | -58.65837 | 37509 ft | 409 kts | 222° |
| 2026-04-25 19:49 | -36.01842 | -58.67096 | 37672 ft | 409 kts | 222° |
| 2026-04-25 19:49 | -36.05031 | -58.69562 | 37952 ft | 408 kts | 222° |
| 2026-04-25 19:49 | -36.07440 | -58.71426 | 37979 ft | 408 kts | 222° |
| 2026-04-25 19:50 | -36.14632 | -58.76998 | 37983 ft | 407 kts | 222° |
| 2026-04-25 19:51 | -36.19423 | -58.80716 | 37989 ft | 407 kts | 222° |
| 2026-04-25 19:51 | -36.24225 | -58.84449 | 37985 ft | 407 kts | 222° |
| 2026-04-25 19:52 | -36.29025 | -58.88185 | 37983 ft | 407 kts | 222° |
| 2026-04-25 19:52 | -36.33821 | -58.91924 | 37990 ft | 407 kts | 222° |
| 2026-04-25 19:53 | -36.38622 | -58.95673 | 37984 ft | 408 kts | 222° |
| 2026-04-25 19:53 | -36.43421 | -58.99425 | 37992 ft | 408 kts | 221° |
| 2026-04-25 19:54 | -36.48221 | -59.03183 | 37988 ft | 408 kts | 221° |
| 2026-04-25 19:54 | -36.53024 | -59.06950 | 37987 ft | 408 kts | 221° |
| 2026-04-25 19:55 | -36.57827 | -59.10723 | 37988 ft | 408 kts | 221° |
| 2026-04-25 19:55 | -36.62630 | -59.14501 | 37987 ft | 408 kts | 221° |
| 2026-04-25 19:56 | -36.67435 | -59.18286 | 37985 ft | 409 kts | 221° |
| 2026-04-25 19:56 | -36.72241 | -59.22077 | 37985 ft | 409 kts | 221° |
| 2026-04-25 19:57 | -36.77045 | -59.25873 | 37984 ft | 409 kts | 221° |
| 2026-04-25 19:57 | -36.81849 | -59.29674 | 37983 ft | 409 kts | 221° |
| 2026-04-25 19:58 | -36.86622 | -59.33457 | 37983 ft | 409 kts | 221° |
| 2026-04-25 19:58 | -36.91430 | -59.37273 | 37984 ft | 410 kts | 221° |
| 2026-04-25 19:59 | -36.96241 | -59.41097 | 37982 ft | 410 kts | 221° |
| 2026-04-25 19:59 | -37.01056 | -59.44930 | 37981 ft | 410 kts | 221° |
| 2026-04-25 20:00 | -37.05863 | -59.48762 | 37989 ft | 410 kts | 221° |
| 2026-04-25 20:00 | -37.10672 | -59.52601 | 37987 ft | 410 kts | 221° |
| 2026-04-25 20:01 | -37.17865 | -59.58394 | 37983 ft | 408 kts | 222° |
| 2026-04-25 20:01 | -37.22572 | -59.62391 | 37977 ft | 408 kts | 222° |
| 2026-04-25 20:02 | -37.27286 | -59.66377 | 37971 ft | 409 kts | 222° |
| 2026-04-25 20:02 | -37.32005 | -59.70370 | 37969 ft | 409 kts | 222° |
| 2026-04-25 20:03 | -37.36723 | -59.74369 | 37960 ft | 409 kts | 222° |
| 2026-04-25 20:03 | -37.41439 | -59.78371 | 37968 ft | 409 kts | 222° |
| 2026-04-25 20:04 | -37.46122 | -59.82352 | 37972 ft | 409 kts | 222° |
| 2026-04-25 20:04 | -37.50836 | -59.86365 | 37963 ft | 409 kts | 222° |
| 2026-04-25 20:05 | -37.55554 | -59.90388 | 37965 ft | 409 kts | 222° |
| 2026-04-25 20:05 | -37.60271 | -59.94417 | 37965 ft | 409 kts | 222° |
| 2026-04-25 20:06 | -37.64988 | -59.98451 | 37963 ft | 409 kts | 222° |
| 2026-04-25 20:06 | -37.69701 | -60.02489 | 37958 ft | 410 kts | 222° |
| 2026-04-25 20:07 | -37.74418 | -60.06536 | 37957 ft | 410 kts | 222° |
| 2026-04-25 20:07 | -37.79130 | -60.10586 | 37955 ft | 410 kts | 222° |
| 2026-04-25 20:08 | -37.83850 | -60.14648 | 37954 ft | 410 kts | 222° |
| 2026-04-25 20:08 | -37.88563 | -60.18712 | 37954 ft | 410 kts | 222° |
| 2026-04-25 20:09 | -37.93284 | -60.22788 | 37947 ft | 411 kts | 222° |
| 2026-04-25 20:09 | -37.98001 | -60.26867 | 37947 ft | 411 kts | 222° |
| 2026-04-25 20:10 | -38.02724 | -60.30959 | 37945 ft | 411 kts | 221° |
| 2026-04-25 20:10 | -38.07446 | -60.35055 | 37934 ft | 411 kts | 222° |
| 2026-04-25 20:11 | -38.12142 | -60.39135 | 37934 ft | 412 kts | 221° |
| 2026-04-25 20:11 | -38.16899 | -60.43213 | 37934 ft | 413 kts | 221° |
| 2026-04-25 20:12 | -38.21685 | -60.47262 | 37936 ft | 413 kts | 221° |
| 2026-04-25 20:12 | -38.24706 | -60.49824 | 37935 ft | 413 kts | 221° |
| 2026-04-25 20:13 | -38.31109 | -60.55264 | 37930 ft | 414 kts | 221° |
| 2026-04-25 20:13 | -38.35895 | -60.59339 | 37932 ft | 414 kts | 221° |
| 2026-04-25 20:14 | -38.40660 | -60.63402 | 37926 ft | 414 kts | 221° |
| 2026-04-25 20:14 | -38.45483 | -60.67520 | 37920 ft | 415 kts | 221° |
| 2026-04-25 20:15 | -38.50282 | -60.71626 | 37923 ft | 415 kts | 221° |
| 2026-04-25 20:15 | -38.55041 | -60.75704 | 37922 ft | 415 kts | 221° |
| 2026-04-25 20:16 | -38.59839 | -60.79822 | 37923 ft | 415 kts | 221° |
| 2026-04-25 20:16 | -38.64638 | -60.83947 | 37923 ft | 415 kts | 221° |
| 2026-04-25 20:17 | -38.69434 | -60.88077 | 37917 ft | 416 kts | 221° |
| 2026-04-25 20:17 | -38.74234 | -60.92217 | 37918 ft | 416 kts | 221° |
| 2026-04-25 20:18 | -38.78259 | -60.95694 | 37916 ft | 417 kts | 220° |
| 2026-04-25 20:18 | -38.83063 | -60.99850 | 37916 ft | 417 kts | 220° |
| 2026-04-25 20:19 | -38.87876 | -61.04019 | 37912 ft | 417 kts | 220° |
| 2026-04-25 20:19 | -38.92670 | -61.08181 | 37912 ft | 417 kts | 220° |
| 2026-04-25 20:20 | -38.97477 | -61.12360 | 37912 ft | 417 kts | 220° |
| 2026-04-25 20:20 | -39.02289 | -61.16550 | 37908 ft | 417 kts | 220° |
| 2026-04-25 20:21 | -39.07095 | -61.20743 | 37904 ft | 418 kts | 220° |
| 2026-04-25 20:21 | -39.11906 | -61.24947 | 37908 ft | 418 kts | 220° |
| 2026-04-25 20:22 | -39.15906 | -61.28448 | 37906 ft | 418 kts | 220° |
| 2026-04-25 20:22 | -39.21524 | -61.33373 | 37910 ft | 418 kts | 220° |
| 2026-04-25 20:23 | -39.26333 | -61.37596 | 37910 ft | 418 kts | 220° |
| 2026-04-25 20:23 | -39.31112 | -61.41800 | 37911 ft | 418 kts | 220° |
| 2026-04-25 20:24 | -39.35918 | -61.46035 | 37911 ft | 418 kts | 220° |
| 2026-04-25 20:24 | -39.40719 | -61.50272 | 37913 ft | 418 kts | 220° |
| 2026-04-25 20:25 | -39.45522 | -61.54520 | 37906 ft | 418 kts | 220° |
| 2026-04-25 20:25 | -39.50319 | -61.58768 | 37901 ft | 418 kts | 220° |
| 2026-04-25 20:26 | -39.55113 | -61.63022 | 37914 ft | 418 kts | 220° |
| 2026-04-25 20:26 | -39.59913 | -61.67287 | 37917 ft | 418 kts | 220° |
| 2026-04-25 20:27 | -39.64699 | -61.71548 | 37913 ft | 417 kts | 220° |
| 2026-04-25 20:27 | -39.69490 | -61.75820 | 37912 ft | 417 kts | 220° |
| 2026-04-25 20:28 | -39.74270 | -61.80089 | 37917 ft | 417 kts | 220° |
| 2026-04-25 20:28 | -39.79055 | -61.84368 | 37915 ft | 417 kts | 220° |
| 2026-04-25 20:29 | -39.83832 | -61.88649 | 37915 ft | 417 kts | 220° |
| 2026-04-25 20:29 | -39.88424 | -61.93178 | 37920 ft | 412 kts | 225° |
| 2026-04-25 20:30 | -39.92835 | -61.97962 | 37919 ft | 413 kts | 225° |
| 2026-04-25 20:30 | -39.97275 | -62.02717 | 37919 ft | 413 kts | 224° |
| 2026-04-25 20:31 | -40.01713 | -62.07468 | 37916 ft | 413 kts | 224° |
| 2026-04-25 20:31 | -40.06157 | -62.12233 | 37919 ft | 413 kts | 224° |
| 2026-04-25 20:32 | -40.10594 | -62.16997 | 37919 ft | 413 kts | 224° |
| 2026-04-25 20:32 | -40.15025 | -62.21765 | 37910 ft | 413 kts | 224° |
| 2026-04-25 20:33 | -40.19459 | -62.26543 | 37922 ft | 413 kts | 224° |
| 2026-04-25 20:33 | -40.23138 | -62.30514 | 37914 ft | 413 kts | 224° |
| 2026-04-25 20:34 | -40.28306 | -62.36104 | 37924 ft | 412 kts | 224° |
| 2026-04-25 20:34 | -40.32731 | -62.40897 | 37918 ft | 412 kts | 224° |
| 2026-04-25 20:35 | -40.37119 | -62.45659 | 37921 ft | 412 kts | 224° |
| 2026-04-25 20:35 | -40.41562 | -62.50490 | 37917 ft | 412 kts | 224° |
| 2026-04-25 20:36 | -40.45935 | -62.55254 | 37920 ft | 412 kts | 224° |
| 2026-04-25 20:36 | -40.50357 | -62.60078 | 37919 ft | 412 kts | 224° |
| 2026-04-25 20:37 | -40.54764 | -62.64894 | 37914 ft | 412 kts | 224° |
| 2026-04-25 20:37 | -40.59173 | -62.69722 | 37915 ft | 412 kts | 224° |
| 2026-04-25 20:38 | -40.63565 | -62.74540 | 37911 ft | 413 kts | 224° |
| 2026-04-25 20:38 | -40.67992 | -62.79404 | 37913 ft | 413 kts | 224° |
| 2026-04-25 20:39 | -40.72401 | -62.84258 | 37912 ft | 413 kts | 224° |
| 2026-04-25 20:39 | -40.76071 | -62.88303 | 37914 ft | 414 kts | 224° |
| 2026-04-25 20:40 | -40.81231 | -62.94002 | 37916 ft | 414 kts | 224° |
| 2026-04-25 20:40 | -40.85649 | -62.98888 | 37914 ft | 414 kts | 224° |
| 2026-04-25 20:41 | -40.90410 | -63.03263 | 37910 ft | 418 kts | 219° |
| 2026-04-25 20:41 | -40.95199 | -63.07640 | 37916 ft | 418 kts | 220° |
| 2026-04-25 20:42 | -40.99976 | -63.12048 | 37909 ft | 419 kts | 220° |
| 2026-04-25 20:42 | -41.04756 | -63.16471 | 37902 ft | 419 kts | 220° |
| 2026-04-25 20:43 | -41.09501 | -63.20870 | 37898 ft | 419 kts | 220° |
| 2026-04-25 20:43 | -41.14283 | -63.25312 | 37893 ft | 420 kts | 220° |
| 2026-04-25 20:44 | -41.19067 | -63.29763 | 37880 ft | 420 kts | 220° |
| 2026-04-25 20:44 | -41.23850 | -63.34222 | 37882 ft | 420 kts | 220° |
| 2026-04-25 20:45 | -41.28631 | -63.38687 | 37883 ft | 420 kts | 220° |
| 2026-04-25 20:45 | -41.33414 | -63.43161 | 37884 ft | 420 kts | 220° |
| 2026-04-25 20:46 | -41.38193 | -63.47642 | 37883 ft | 420 kts | 220° |
| 2026-04-25 20:46 | -41.42969 | -63.52126 | 37877 ft | 420 kts | 220° |
| 2026-04-25 20:47 | -41.47753 | -63.56627 | 37878 ft | 420 kts | 220° |
| 2026-04-25 20:47 | -41.52531 | -63.61131 | 37872 ft | 420 kts | 220° |
| 2026-04-25 20:48 | -41.57322 | -63.65654 | 37871 ft | 420 kts | 220° |
| 2026-04-25 20:48 | -41.62075 | -63.70150 | 37869 ft | 420 kts | 220° |
| 2026-04-25 20:49 | -41.66856 | -63.74682 | 37867 ft | 420 kts | 220° |
| 2026-04-25 20:49 | -41.71607 | -63.79192 | 37861 ft | 420 kts | 220° |
| 2026-04-25 20:50 | -41.76389 | -63.83742 | 37858 ft | 421 kts | 220° |
| 2026-04-25 20:50 | -41.81144 | -63.88273 | 37854 ft | 421 kts | 220° |
| 2026-04-25 20:51 | -41.85917 | -63.92831 | 37847 ft | 421 kts | 220° |
| 2026-04-25 20:51 | -41.90669 | -63.97376 | 37847 ft | 421 kts | 219° |
| 2026-04-25 20:52 | -41.94668 | -64.01208 | 37844 ft | 421 kts | 219° |
| 2026-04-25 20:52 | -42.00212 | -64.06531 | 37840 ft | 421 kts | 219° |
| 2026-04-25 20:53 | -42.04953 | -64.11092 | 37838 ft | 421 kts | 219° |
| 2026-04-25 20:53 | -42.09726 | -64.15692 | 37834 ft | 420 kts | 219° |
| 2026-04-25 20:54 | -42.14458 | -64.20261 | 37835 ft | 420 kts | 219° |
| 2026-04-25 20:54 | -42.19210 | -64.24860 | 37827 ft | 419 kts | 219° |
| 2026-04-25 20:55 | -42.23927 | -64.29431 | 37820 ft | 419 kts | 219° |
| 2026-04-25 20:55 | -42.28655 | -64.34023 | 37814 ft | 418 kts | 219° |
| 2026-04-25 20:56 | -42.33379 | -64.38618 | 37801 ft | 417 kts | 219° |
| 2026-04-25 20:56 | -42.38065 | -64.43187 | 37807 ft | 417 kts | 219° |
| 2026-04-25 20:57 | -42.42775 | -64.47786 | 37805 ft | 417 kts | 219° |
| 2026-04-25 20:57 | -42.47486 | -64.52396 | 37799 ft | 417 kts | 219° |
| 2026-04-25 20:58 | -42.52169 | -64.56987 | 37790 ft | 417 kts | 219° |
| 2026-04-25 20:58 | -42.56882 | -64.61615 | 37791 ft | 417 kts | 219° |
| 2026-04-25 20:59 | -42.61556 | -64.66215 | 37776 ft | 417 kts | 219° |
| 2026-04-25 20:59 | -42.66264 | -64.70857 | 37772 ft | 417 kts | 219° |
| 2026-04-25 21:00 | -42.69383 | -64.73936 | 37779 ft | 417 kts | 219° |
| 2026-04-25 21:01 | -42.77989 | -64.82456 | 37764 ft | 417 kts | 219° |
| 2026-04-25 21:01 | -42.81896 | -64.86332 | 37770 ft | 417 kts | 219° |
| 2026-04-25 21:02 | -42.87358 | -64.91763 | 37760 ft | 417 kts | 219° |
| 2026-04-25 21:02 | -42.91255 | -64.95644 | 37761 ft | 417 kts | 219° |
| 2026-04-25 21:03 | -42.95943 | -65.00323 | 37772 ft | 417 kts | 219° |
| 2026-04-25 21:03 | -43.01393 | -65.05772 | 37786 ft | 417 kts | 219° |
| 2026-04-25 21:04 | -43.05296 | -65.09681 | 37802 ft | 418 kts | 219° |
| 2026-04-25 21:04 | -43.09994 | -65.14393 | 37819 ft | 418 kts | 219° |
| 2026-04-25 21:05 | -43.14703 | -65.19127 | 37835 ft | 419 kts | 219° |
| 2026-04-25 21:05 | -43.19370 | -65.23824 | 37832 ft | 420 kts | 218° |
| 2026-04-25 21:06 | -43.24411 | -65.27975 | 37831 ft | 422 kts | 213° |
| 2026-04-25 21:06 | -43.29513 | -65.32006 | 37834 ft | 423 kts | 213° |
| 2026-04-25 21:07 | -43.34594 | -65.36014 | 37813 ft | 423 kts | 213° |
| 2026-04-25 21:07 | -43.39720 | -65.40063 | 37794 ft | 424 kts | 213° |
| 2026-04-25 21:08 | -43.44811 | -65.44093 | 37771 ft | 424 kts | 213° |
| 2026-04-25 21:08 | -43.49933 | -65.48155 | 37742 ft | 424 kts | 213° |
| 2026-04-25 21:09 | -43.57591 | -65.54244 | 37724 ft | 425 kts | 213° |
| 2026-04-25 21:09 | -43.62717 | -65.58330 | 37731 ft | 425 kts | 213° |
| 2026-04-25 21:10 | -43.67851 | -65.62430 | 37721 ft | 425 kts | 213° |
| 2026-04-25 21:10 | -43.72960 | -65.66518 | 37716 ft | 426 kts | 213° |
| 2026-04-25 21:11 | -43.78086 | -65.70628 | 37707 ft | 425 kts | 213° |
| 2026-04-25 21:11 | -43.83185 | -65.74725 | 37706 ft | 425 kts | 213° |
| 2026-04-25 21:12 | -43.88305 | -65.78846 | 37695 ft | 424 kts | 213° |
| 2026-04-25 21:12 | -43.92549 | -65.82269 | 37697 ft | 423 kts | 213° |
| 2026-04-25 21:13 | -43.98470 | -65.87052 | 37695 ft | 422 kts | 213° |
| 2026-04-25 21:13 | -44.03559 | -65.91177 | 37686 ft | 421 kts | 213° |
| 2026-04-25 21:14 | -44.08583 | -65.95256 | 37682 ft | 420 kts | 213° |
| 2026-04-25 21:14 | -44.13647 | -65.99375 | 37675 ft | 420 kts | 213° |
| 2026-04-25 21:15 | -44.18665 | -66.03465 | 37670 ft | 419 kts | 214° |
| 2026-04-25 21:15 | -44.23709 | -66.07584 | 37672 ft | 419 kts | 214° |
| 2026-04-25 21:16 | -44.28740 | -66.11701 | 37671 ft | 419 kts | 214° |
| 2026-04-25 21:16 | -44.33741 | -66.15801 | 37667 ft | 418 kts | 214° |
| 2026-04-25 21:17 | -44.38774 | -66.19937 | 37669 ft | 418 kts | 214° |
| 2026-04-25 21:17 | -44.43768 | -66.24048 | 37665 ft | 418 kts | 214° |
| 2026-04-25 21:18 | -44.48800 | -66.28199 | 37674 ft | 418 kts | 214° |
| 2026-04-25 21:18 | -44.53784 | -66.32319 | 37665 ft | 418 kts | 214° |
| 2026-04-25 21:19 | -44.58804 | -66.36476 | 37668 ft | 418 kts | 214° |
| 2026-04-25 21:19 | -44.63791 | -66.40615 | 37672 ft | 418 kts | 214° |
| 2026-04-25 21:20 | -44.67949 | -66.44072 | 37668 ft | 418 kts | 214° |
| 2026-04-25 21:20 | -44.73784 | -66.48934 | 37672 ft | 418 kts | 214° |
| 2026-04-25 21:21 | -44.78784 | -66.53108 | 37673 ft | 418 kts | 214° |
| 2026-04-25 21:21 | -44.83769 | -66.57280 | 37675 ft | 418 kts | 214° |
| 2026-04-25 21:22 | -44.88780 | -66.61480 | 37677 ft | 419 kts | 214° |
| 2026-04-25 21:22 | -44.93794 | -66.65691 | 37679 ft | 419 kts | 214° |
| 2026-04-25 21:23 | -44.98797 | -66.69903 | 37686 ft | 420 kts | 214° |
| 2026-04-25 21:23 | -45.03828 | -66.74147 | 37691 ft | 421 kts | 214° |
| 2026-04-25 21:24 | -45.08864 | -66.78403 | 37692 ft | 421 kts | 214° |
| 2026-04-25 21:24 | -45.13891 | -66.82660 | 37694 ft | 422 kts | 214° |
| 2026-04-25 21:25 | -45.18896 | -66.86907 | 37699 ft | 422 kts | 214° |
| 2026-04-25 21:25 | -45.23949 | -66.91204 | 37702 ft | 422 kts | 214° |
| 2026-04-25 21:26 | -45.28961 | -66.95474 | 37707 ft | 422 kts | 214° |
| 2026-04-25 21:26 | -45.34011 | -66.99787 | 37708 ft | 422 kts | 214° |
| 2026-04-25 21:27 | -45.39031 | -67.04082 | 37714 ft | 423 kts | 214° |
| 2026-04-25 21:27 | -45.44081 | -67.08413 | 37714 ft | 423 kts | 214° |
| 2026-04-25 21:28 | -45.49106 | -67.12730 | 37719 ft | 423 kts | 214° |
| 2026-04-25 21:28 | -45.54147 | -67.17072 | 37729 ft | 423 kts | 214° |
| 2026-04-25 21:29 | -45.59171 | -67.21407 | 37739 ft | 423 kts | 214° |
| 2026-04-25 21:29 | -45.64218 | -67.25772 | 37745 ft | 423 kts | 214° |
| 2026-04-25 21:30 | -45.69251 | -67.30134 | 37748 ft | 423 kts | 214° |
| 2026-04-25 21:30 | -45.73440 | -67.33769 | 37747 ft | 423 kts | 214° |
| 2026-04-25 21:31 | -45.79220 | -67.39007 | 37751 ft | 422 kts | 216° |
| 2026-04-25 21:31 | -45.84137 | -67.43645 | 37750 ft | 422 kts | 216° |
| 2026-04-25 21:32 | -45.89021 | -67.48243 | 37750 ft | 422 kts | 216° |
| 2026-04-25 21:32 | -45.93940 | -67.52881 | 37753 ft | 422 kts | 215° |
| 2026-04-25 21:33 | -45.98850 | -67.57522 | 37761 ft | 422 kts | 215° |
| 2026-04-25 21:33 | -46.03731 | -67.62144 | 37775 ft | 422 kts | 215° |
| 2026-04-25 21:34 | -46.08636 | -67.66801 | 37786 ft | 421 kts | 215° |
| 2026-04-25 21:34 | -46.13511 | -67.71439 | 37792 ft | 421 kts | 215° |
| 2026-04-25 21:35 | -46.18407 | -67.76106 | 37799 ft | 421 kts | 215° |
| 2026-04-25 21:35 | -46.23273 | -67.80755 | 37808 ft | 421 kts | 215° |
| 2026-04-25 21:36 | -46.28167 | -67.85441 | 37818 ft | 421 kts | 215° |
| 2026-04-25 21:36 | -46.33066 | -67.90141 | 37815 ft | 421 kts | 215° |
| 2026-04-25 21:37 | -46.37122 | -67.94040 | 37822 ft | 421 kts | 215° |
| 2026-04-25 21:37 | -46.42801 | -67.99513 | 37829 ft | 420 kts | 215° |
| 2026-04-25 21:38 | -46.47652 | -68.04197 | 37834 ft | 420 kts | 215° |
| 2026-04-25 21:38 | -46.52519 | -68.08909 | 37832 ft | 420 kts | 215° |
| 2026-04-25 21:39 | -46.57380 | -68.13624 | 37840 ft | 420 kts | 215° |
| 2026-04-25 21:39 | -46.62212 | -68.18322 | 37847 ft | 419 kts | 215° |
| 2026-04-25 21:40 | -46.67077 | -68.23062 | 37859 ft | 419 kts | 215° |
| 2026-04-25 21:40 | -46.71894 | -68.27765 | 37860 ft | 418 kts | 214° |
| 2026-04-25 21:41 | -46.76726 | -68.32494 | 37865 ft | 418 kts | 214° |
| 2026-04-25 21:41 | -46.81560 | -68.37235 | 37868 ft | 418 kts | 214° |
| 2026-04-25 21:42 | -46.86363 | -68.41956 | 37871 ft | 418 kts | 214° |
| 2026-04-25 21:42 | -46.91199 | -68.46720 | 37869 ft | 418 kts | 214° |
| 2026-04-25 21:43 | -46.95996 | -68.51455 | 37881 ft | 418 kts | 214° |
| 2026-04-25 21:43 | -47.00821 | -68.56230 | 37879 ft | 418 kts | 214° |
| 2026-04-25 21:44 | -47.05647 | -68.61015 | 37885 ft | 418 kts | 214° |
| 2026-04-25 21:45 | -47.12867 | -68.68194 | 37891 ft | 418 kts | 214° |
| 2026-04-25 21:45 | -47.17651 | -68.72965 | 37897 ft | 417 kts | 214° |
| 2026-04-25 21:46 | -47.22458 | -68.77768 | 37899 ft | 417 kts | 214° |
| 2026-04-25 21:46 | -47.27224 | -68.82542 | 37906 ft | 416 kts | 214° |
| 2026-04-25 21:47 | -47.31999 | -68.87335 | 37917 ft | 415 kts | 214° |
| 2026-04-25 21:47 | -47.36783 | -68.92148 | 37918 ft | 414 kts | 214° |
| 2026-04-25 21:48 | -47.41541 | -68.96946 | 37922 ft | 413 kts | 214° |
| 2026-04-25 21:48 | -47.46268 | -69.01722 | 37930 ft | 413 kts | 214° |
| 2026-04-25 21:49 | -47.51016 | -69.06531 | 37936 ft | 412 kts | 214° |
| 2026-04-25 21:49 | -47.55723 | -69.11309 | 37935 ft | 412 kts | 214° |
| 2026-04-25 21:50 | -47.59654 | -69.15306 | 37936 ft | 412 kts | 214° |
| 2026-04-25 21:50 | -47.64379 | -69.20123 | 37941 ft | 412 kts | 214° |
| 2026-04-25 21:51 | -47.69874 | -69.25736 | 37947 ft | 412 kts | 214° |
| 2026-04-25 21:51 | -47.73796 | -69.29753 | 37948 ft | 411 kts | 214° |
| 2026-04-25 21:52 | -47.78515 | -69.34594 | 37955 ft | 411 kts | 214° |
| 2026-04-25 21:52 | -47.83227 | -69.39440 | 37953 ft | 411 kts | 214° |
| 2026-04-25 21:53 | -47.87908 | -69.44265 | 37962 ft | 411 kts | 214° |
| 2026-04-25 21:53 | -47.92610 | -69.49122 | 37969 ft | 410 kts | 214° |
| 2026-04-25 21:54 | -47.97301 | -69.53978 | 37970 ft | 410 kts | 214° |
| 2026-04-25 21:54 | -48.01958 | -69.58811 | 37972 ft | 410 kts | 213° |
| 2026-04-25 21:55 | -48.06643 | -69.63683 | 37976 ft | 410 kts | 213° |
| 2026-04-25 21:55 | -48.11328 | -69.68566 | 37983 ft | 410 kts | 213° |
| 2026-04-25 21:56 | -48.16009 | -69.73456 | 37975 ft | 410 kts | 213° |
| 2026-04-25 21:56 | -48.20655 | -69.78319 | 37984 ft | 410 kts | 213° |
| 2026-04-25 21:57 | -48.25336 | -69.83229 | 37984 ft | 410 kts | 213° |
| 2026-04-25 21:57 | -48.29993 | -69.88125 | 37991 ft | 410 kts | 213° |
| 2026-04-25 21:58 | -48.34667 | -69.93049 | 37995 ft | 410 kts | 213° |
| 2026-04-25 21:58 | -48.39340 | -69.97983 | 37993 ft | 409 kts | 213° |
| 2026-04-25 21:59 | -48.44010 | -70.02923 | 37998 ft | 409 kts | 213° |
| 2026-04-25 21:59 | -48.48673 | -70.07816 | 38002 ft | 408 kts | 213° |
| 2026-04-25 22:00 | -48.55648 | -70.15145 | 38010 ft | 406 kts | 213° |
| 2026-04-25 22:00 | -48.60246 | -70.19988 | 38007 ft | 405 kts | 213° |
| 2026-04-25 22:01 | -48.64884 | -70.24885 | 37409 ft | 402 kts | 213° |
| 2026-04-25 22:01 | -48.67151 | -70.27282 | 36709 ft | 403 kts | 212° |
| 2026-04-25 22:01 | -48.68701 | -70.28922 | 36245 ft | 403 kts | 212° |
| 2026-04-25 22:02 | -48.71732 | -70.32135 | 35505 ft | 400 kts | 212° |
| 2026-04-25 22:02 | -48.74002 | -70.34545 | 34983 ft | 396 kts | 212° |
| 2026-04-25 22:02 | -48.76253 | -70.36935 | 34464 ft | 393 kts | 211° |
| 2026-04-25 22:02 | -48.78481 | -70.39305 | 33913 ft | 391 kts | 211° |
| 2026-04-25 22:03 | -48.80708 | -70.41676 | 33195 ft | 390 kts | 211° |
| 2026-04-25 22:03 | -48.82916 | -70.44028 | 32683 ft | 385 kts | 212° |
| 2026-04-25 22:03 | -48.85088 | -70.46345 | 32278 ft | 378 kts | 211° |
| 2026-04-25 22:03 | -48.87223 | -70.48626 | 31810 ft | 372 kts | 210° |
| 2026-04-25 22:04 | -48.89332 | -70.50878 | 31333 ft | 368 kts | 210° |
| 2026-04-25 22:04 | -48.91410 | -70.53103 | 30880 ft | 364 kts | 210° |
| 2026-04-25 22:04 | -48.93466 | -70.55305 | 30421 ft | 359 kts | 210° |
| 2026-04-25 22:04 | -48.95497 | -70.57482 | 29947 ft | 355 kts | 210° |
| 2026-04-25 22:05 | -48.97499 | -70.59631 | 29432 ft | 350 kts | 210° |
| 2026-04-25 22:05 | -48.99470 | -70.61750 | 29000 ft | 344 kts | 210° |
| 2026-04-25 22:05 | -49.01410 | -70.63836 | 28581 ft | 338 kts | 210° |
| 2026-04-25 22:05 | -49.03312 | -70.65883 | 28166 ft | 333 kts | 210° |
| 2026-04-25 22:06 | -49.05190 | -70.67905 | 27762 ft | 331 kts | 210° |
| 2026-04-25 22:06 | -49.07079 | -70.69944 | 27345 ft | 334 kts | 210° |
| 2026-04-25 22:06 | -49.08976 | -70.71991 | 26935 ft | 333 kts | 210° |
| 2026-04-25 22:06 | -49.10859 | -70.74025 | 26525 ft | 331 kts | 210° |
| 2026-04-25 22:07 | -49.12734 | -70.76053 | 26118 ft | 329 kts | 210° |
| 2026-04-25 22:07 | -49.13966 | -70.77386 | 25845 ft | 328 kts | 210° |
| 2026-04-25 22:07 | -49.16444 | -70.80071 | 25289 ft | 325 kts | 210° |
| 2026-04-25 22:07 | -49.18262 | -70.82043 | 24835 ft | 324 kts | 210° |
| 2026-04-25 22:08 | -49.20085 | -70.84023 | 24459 ft | 319 kts | 210° |
| 2026-04-25 22:08 | -49.21876 | -70.85970 | 24086 ft | 314 kts | 211° |
| 2026-04-25 22:08 | -49.23650 | -70.87899 | 23705 ft | 312 kts | 211° |
| 2026-04-25 22:08 | -49.25420 | -70.89825 | 23259 ft | 314 kts | 211° |
| 2026-04-25 22:09 | -49.27206 | -70.91770 | 22828 ft | 315 kts | 211° |
| 2026-04-25 22:09 | -49.28992 | -70.93718 | 22440 ft | 314 kts | 211° |
| 2026-04-25 22:09 | -49.30770 | -70.95658 | 22064 ft | 313 kts | 211° |
| 2026-04-25 22:09 | -49.32538 | -70.97590 | 21681 ft | 312 kts | 211° |
| 2026-04-25 22:10 | -49.34302 | -70.99519 | 21304 ft | 310 kts | 211° |
| 2026-04-25 22:10 | -49.36052 | -71.01435 | 20929 ft | 309 kts | 211° |
| 2026-04-25 22:10 | -49.37800 | -71.03349 | 20555 ft | 308 kts | 211° |
| 2026-04-25 22:10 | -49.39537 | -71.05254 | 20187 ft | 307 kts | 211° |
| 2026-04-25 22:11 | -49.41273 | -71.07158 | 19816 ft | 306 kts | 211° |
| 2026-04-25 22:11 | -49.42997 | -71.09053 | 19449 ft | 305 kts | 211° |
| 2026-04-25 22:11 | -49.44716 | -71.10942 | 19087 ft | 304 kts | 211° |
| 2026-04-25 22:11 | -49.46429 | -71.12828 | 18720 ft | 303 kts | 211° |
| 2026-04-25 22:12 | -49.48141 | -71.14713 | 18344 ft | 302 kts | 211° |
| 2026-04-25 22:12 | -49.49844 | -71.16591 | 17932 ft | 301 kts | 212° |
| 2026-04-25 22:12 | -49.51541 | -71.18462 | 17571 ft | 299 kts | 212° |
| 2026-04-25 22:12 | -49.52660 | -71.19698 | 17462 ft | 299 kts | 212° |
| 2026-04-25 22:13 | -49.54922 | -71.22197 | 17243 ft | 299 kts | 212° |
| 2026-04-25 22:13 | -49.56611 | -71.24066 | 17050 ft | 299 kts | 212° |
| 2026-04-25 22:13 | -49.58294 | -71.25927 | 16727 ft | 298 kts | 212° |
| 2026-04-25 22:13 | -49.59972 | -71.27787 | 16351 ft | 297 kts | 212° |
| 2026-04-25 22:14 | -49.61645 | -71.29556 | 15904 ft | 295 kts | 206° |
| 2026-04-25 22:14 | -49.63493 | -71.30908 | 15473 ft | 293 kts | 204° |
| 2026-04-25 22:14 | -49.65323 | -71.32273 | 15094 ft | 292 kts | 204° |
| 2026-04-25 22:14 | -49.67131 | -71.33645 | 14707 ft | 291 kts | 205° |
| 2026-04-25 22:15 | -49.68952 | -71.35044 | 14290 ft | 291 kts | 205° |
| 2026-04-25 22:15 | -49.70761 | -71.36445 | 13895 ft | 289 kts | 205° |
| 2026-04-25 22:15 | -49.72553 | -71.37839 | 13439 ft | 287 kts | 205° |
| 2026-04-25 22:16 | -49.76068 | -71.40583 | 12625 ft | 278 kts | 206° |
| 2026-04-25 22:16 | -49.77779 | -71.41923 | 12245 ft | 274 kts | 206° |
| 2026-04-25 22:16 | -49.79479 | -71.43253 | 11859 ft | 275 kts | 206° |
| 2026-04-25 22:16 | -49.81194 | -71.44597 | 11474 ft | 277 kts | 206° |
| 2026-04-25 22:17 | -49.82912 | -71.45945 | 11097 ft | 277 kts | 206° |
| 2026-04-25 22:17 | -49.84630 | -71.47294 | 10691 ft | 277 kts | 206° |
| 2026-04-25 22:17 | -49.86321 | -71.48623 | 10496 ft | 267 kts | 206° |
| 2026-04-25 22:17 | -49.87948 | -71.49902 | 10366 ft | 257 kts | 206° |
| 2026-04-25 22:18 | -49.89505 | -71.51126 | 10212 ft | 245 kts | 207° |
| 2026-04-25 22:18 | -49.90997 | -71.52298 | 10132 ft | 238 kts | 207° |
| 2026-04-25 22:18 | -49.92487 | -71.53459 | 9754 ft | 241 kts | 207° |
| 2026-04-25 22:18 | -49.93979 | -71.54624 | 9407 ft | 238 kts | 207° |
| 2026-04-25 22:19 | -49.95445 | -71.55769 | 9117 ft | 235 kts | 207° |
| 2026-04-25 22:19 | -49.96912 | -71.56916 | 8813 ft | 237 kts | 207° |
| 2026-04-25 22:19 | -49.98357 | -71.58046 | 8566 ft | 233 kts | 207° |
| 2026-04-25 22:19 | -49.99786 | -71.59164 | 8351 ft | 229 kts | 207° |
| 2026-04-25 22:20 | -50.01228 | -71.60293 | 8098 ft | 234 kts | 207° |
| 2026-04-25 22:20 | -50.02693 | -71.61443 | 7756 ft | 236 kts | 207° |
| 2026-04-25 22:20 | -50.04155 | -71.62589 | 7432 ft | 235 kts | 207° |
| 2026-04-25 22:20 | -50.05621 | -71.63739 | 7115 ft | 236 kts | 207° |
| 2026-04-25 22:21 | -50.07081 | -71.64886 | 6772 ft | 234 kts | 207° |
| 2026-04-25 22:21 | -50.08532 | -71.66027 | 6447 ft | 233 kts | 207° |
| 2026-04-25 22:21 | -50.09969 | -71.67158 | 6150 ft | 232 kts | 207° |
| 2026-04-25 22:21 | -50.11419 | -71.68298 | 5815 ft | 233 kts | 207° |
| 2026-04-25 22:22 | -50.12860 | -71.69433 | 5517 ft | 231 kts | 208° |
| 2026-04-25 22:22 | -50.14264 | -71.70540 | 5235 ft | 221 kts | 208° |
| 2026-04-25 22:22 | -50.15600 | -71.71593 | 4965 ft | 209 kts | 208° |
| 2026-04-25 22:22 | -50.16877 | -71.72501 | 4809 ft | 198 kts | 200° |
| 2026-04-25 22:23 | -50.18204 | -71.73066 | 4528 ft | 196 kts | 197° |
| 2026-04-25 22:23 | -50.19495 | -71.73593 | 4180 ft | 186 kts | 197° |
| 2026-04-25 22:23 | -50.20688 | -71.74082 | 3878 ft | 167 kts | 198° |
| 2026-04-25 22:23 | -50.21726 | -71.74510 | 3610 ft | 145 kts | 198° |
| 2026-04-25 22:24 | -50.22672 | -71.74900 | 3393 ft | 134 kts | 198° |
| 2026-04-25 22:24 | -50.23548 | -71.75263 | 3188 ft | 127 kts | 199° |
| 2026-04-25 22:24 | -50.24402 | -71.75617 | 3007 ft | 126 kts | 198° |
| 2026-04-25 22:24 | -50.25197 | -71.76137 | 2904 ft | 124 kts | 222° |
| 2026-04-25 22:25 | -50.25672 | -71.77257 | 2911 ft | 127 kts | 246° |
| 2026-04-25 22:25 | -50.25917 | -71.78592 | 2947 ft | 128 kts | 252° |
| 2026-04-25 22:25 | -50.26117 | -71.79941 | 2920 ft | 127 kts | 253° |
| 2026-04-25 22:25 | -50.26290 | -71.81296 | 2857 ft | 128 kts | 255° |
| 2026-04-25 22:26 | -50.26456 | -71.82659 | 2696 ft | 127 kts | 254° |
| 2026-04-25 22:26 | -50.26638 | -71.84009 | 2617 ft | 128 kts | 255° |
| 2026-04-25 22:26 | -50.26794 | -71.85382 | 2497 ft | 128 kts | 258° |
| 2026-04-25 22:26 | -50.26897 | -71.86762 | 2363 ft | 128 kts | 260° |
| 2026-04-25 22:27 | -50.26984 | -71.88155 | 2224 ft | 128 kts | 261° |
| 2026-04-25 22:27 | -50.27072 | -71.89543 | 2060 ft | 129 kts | 260° |
| 2026-04-25 22:27 | -50.27157 | -71.90942 | 1939 ft | 130 kts | 260° |
| 2026-04-25 22:27 | -50.27243 | -71.92352 | 1787 ft | 130 kts | 259° |
| 2026-04-25 22:28 | -50.27332 | -71.93769 | 1563 ft | 132 kts | 258° |
| 2026-04-25 22:28 | -50.27417 | -71.95201 | 1411 ft | 132 kts | 258° |
| 2026-04-25 22:28 | -50.27505 | -71.96629 | 1230 ft | 132 kts | 259° |
| 2026-04-25 22:28 | -50.27604 | -71.98055 | 1061 ft | 132 kts | 259° |
| 2026-04-25 22:29 | -50.27702 | -71.99470 | 1039 ft | 130 kts | 260° |
| 2026-04-25 22:29 | -50.27766 | -72.00871 | 930 ft | 128 kts | 262° |
| 2026-04-25 22:29 | -50.27852 | -72.02231 | 785 ft | 128 kts | 261° |
| 2026-04-25 22:30 | -50.28002 | -72.04879 | 647 ft | 101 kts | 266° |
| 2026-04-25 22:30 | -50.28046 | -72.05737 | 644 ft | 57 kts | 266° |
| 2026-04-25 22:30 | -50.28082 | -72.06140 | 644 ft | 29 kts | 245° |
| 2026-04-25 22:30 | -50.28154 | -72.06301 | 644 ft | 11 kts | 233° |
| 2026-04-25 22:31 | -50.28230 | -72.06404 | 643 ft | 11 kts | 185° |
| 2026-04-25 22:31 | -50.28301 | -72.06346 | 643 ft | 12 kts | 126° |
| 2026-04-25 22:31 | -50.28307 | -72.06208 | 643 ft | 14 kts | 83° |
| 2026-04-25 22:31 | -50.28298 | -72.06041 | 643 ft | 17 kts | 85° |
| 2026-04-25 22:32 | -50.28287 | -72.05846 | 644 ft | 19 kts | 84° |
| 2026-04-25 22:32 | -50.28275 | -72.05647 | 644 ft | 12 kts | 85° |
| 2026-04-25 22:32 | -50.28269 | -72.05554 | 645 ft | 7 kts | 85° |
| 2026-04-25 22:32 | -50.28264 | -72.05464 | 644 ft | 9 kts | 85° |
| 2026-04-25 22:33 | -50.28262 | -72.05424 | 644 ft | 2 kts | 85° |
| 2026-04-25 22:33 | -50.28263 | -72.05397 | 644 ft | 2 kts | 115° |
| 2026-04-25 22:33 | -50.28268 | -72.05393 | 644 ft | 0 kts | 155° |
| 2026-04-25 22:33 | -50.28282 | -72.05392 | 644 ft | 4 kts | 177° |
| 2026-04-25 22:34 | -50.28308 | -72.05390 | 644 ft | 5 kts | 176° |
| 2026-04-25 22:34 | -50.28336 | -72.05386 | 643 ft | 4 kts | 174° |
| 2026-04-25 22:34 | -50.28338 | -72.05386 | 644 ft | 0 kts | 174° |